Time;durP1;ratioP1;P1;durP2;ratioP2;P2;SDS_P1;SDS_P2;PMS_P1;PMS_P2;Temp;Humidity;BMP_temperature;BMP_pressure;BME280_temperature;BME280_humidity;BME280_pressure;Samples;Min_cycle;Max_cycle;Signal;HPM_P1;HPM_P2
2023/08/06 00:00:44;;;;;;;2.43;1.97;;;17.00;99.90;;;;;;4984309;28;20572;-73
2023/08/06 00:03:11;;;;;;;2.53;1.60;;;17.00;99.90;;;;;;5001197;28;20192;-70
2023/08/06 00:05:38;;;;;;;2.20;2.00;;;17.00;99.90;;;;;;5002926;28;20223;-72
2023/08/06 00:08:05;;;;;;;2.40;2.20;;;17.00;99.90;;;;;;4980838;28;20217;-70
2023/08/06 00:10:31;;;;;;;2.00;1.90;;;16.90;99.90;;;;;;5002500;28;20197;-73
2023/08/06 00:12:58;;;;;;;2.63;2.30;;;16.80;99.90;;;;;;4986573;28;20613;-71
2023/08/06 00:15:25;;;;;;;2.13;1.80;;;16.80;99.90;;;;;;5002883;28;20231;-70
2023/08/06 00:17:53;;;;;;;2.30;2.10;;;16.80;99.90;;;;;;5000076;28;20204;-73
2023/08/06 00:20:20;;;;;;;2.80;2.30;;;16.80;99.90;;;;;;5003423;28;20201;-71
2023/08/06 00:22:47;;;;;;;2.30;1.87;;;16.70;99.90;;;;;;4981799;28;20208;-73
2023/08/06 00:25:14;;;;;;;2.77;2.43;;;16.60;99.90;;;;;;4962210;28;20235;-71
2023/08/06 00:27:41;;;;;;;5.77;2.53;;;16.60;99.90;;;;;;5001012;28;20200;-74
2023/08/06 00:30:08;;;;;;;4.50;2.40;;;16.50;99.90;;;;;;4985436;28;20193;-71
2023/08/06 00:32:35;;;;;;;3.87;2.40;;;16.60;99.90;;;;;;4997462;28;20263;-71
2023/08/06 00:35:04;;;;;;;2.77;2.00;;;16.50;99.90;;;;;;4990104;28;20219;-71
2023/08/06 00:37:31;;;;;;;3.43;2.57;;;;;;;;;;4992269;28;20200;-71
2023/08/06 00:39:59;;;;;;;2.63;2.23;;;16.50;99.90;;;;;;4973238;28;20840;-71
2023/08/06 00:42:27;;;;;;;2.53;2.23;;;16.50;99.90;;;;;;5005865;28;20287;-71
2023/08/06 00:44:54;;;;;;;2.67;2.37;;;16.50;99.90;;;;;;4983536;28;20225;-73
2023/08/06 00:47:20;;;;;;;5.83;2.90;;;16.40;99.90;;;;;;4984154;28;20212;-71
2023/08/06 00:49:47;;;;;;;5.23;3.07;;;16.40;99.90;;;;;;5002529;28;20216;-73
2023/08/06 00:52:16;;;;;;;3.00;2.50;;;;;;;;;;4988232;28;20197;-70
2023/08/06 00:54:43;;;;;;;4.27;2.60;;;16.30;99.90;;;;;;4980543;28;20620;-73
2023/08/06 00:57:10;;;;;;;2.60;2.30;;;16.20;99.90;;;;;;4995063;28;20200;-70
2023/08/06 00:59:38;;;;;;;3.13;2.80;;;16.20;99.90;;;;;;4995279;28;20193;-73
2023/08/06 01:02:05;;;;;;;4.27;2.73;;;16.20;99.90;;;;;;4994954;28;20197;-71
2023/08/06 01:04:33;;;;;;;2.97;2.67;;;16.30;99.90;;;;;;5001409;28;20221;-72
2023/08/06 01:07:09;;;;;;;3.00;2.80;;;16.30;99.90;;;;;;5004613;28;20254;-71
2023/08/06 01:09:46;;;;;;;4.20;2.77;;;16.20;99.90;;;;;;4999854;28;20200;-72
2023/08/06 01:12:21;;;;;;;3.43;3.20;;;16.20;99.90;;;;;;4969926;28;20235;-72
2023/08/06 01:14:56;;;;;;;3.30;3.00;;;16.10;99.90;;;;;;4984757;28;21025;-72
2023/08/06 01:17:26;;;;;;;2.97;2.53;;;16.10;99.90;;;;;;4997375;28;20199;-73
2023/08/06 01:19:53;;;;;;;3.70;2.63;;;16.10;99.90;;;;;;5000668;28;20200;-71
2023/08/06 01:22:21;;;;;;;3.40;2.83;;;16.10;99.90;;;;;;4985453;28;20205;-74
2023/08/06 01:24:51;;;;;;;3.23;2.53;;;16.10;99.90;;;;;;4984134;28;20981;-72
2023/08/06 01:27:28;;;;;;;3.30;2.60;;;16.10;99.90;;;;;;4986188;28;20688;-74
2023/08/06 01:30:03;;;;;;;3.90;2.93;;;16.00;99.90;;;;;;5007338;28;20259;-71
2023/08/06 01:32:32;;;;;;;5.40;2.70;;;16.10;99.90;;;;;;5002830;28;20200;-73
2023/08/06 01:35:01;;;;;;;3.57;3.27;;;16.00;99.90;;;;;;4997101;28;20280;-73
2023/08/06 01:37:30;;;;;;;3.30;3.10;;;16.10;99.90;;;;;;4999476;28;20192;-73
2023/08/06 01:39:57;;;;;;;2.77;2.57;;;16.10;99.90;;;;;;5005658;28;20201;-71
2023/08/06 01:42:25;;;;;;;3.43;2.90;;;16.00;99.90;;;;;;4985158;28;20538;-74
2023/08/06 01:44:52;;;;;;;2.97;2.77;;;16.00;99.90;;;;;;4986143;28;20205;-71
2023/08/06 01:47:19;;;;;;;2.50;2.33;;;16.00;99.90;;;;;;4992067;28;20802;-73
2023/08/06 01:49:46;;;;;;;4.07;2.60;;;16.00;99.90;;;;;;5001612;28;20204;-72
2023/08/06 01:52:12;;;;;;;3.77;2.80;;;16.00;99.90;;;;;;4991605;28;20209;-72
2023/08/06 01:54:40;;;;;;;5.00;3.00;;;16.00;99.90;;;;;;4995909;28;20272;-73
2023/08/06 01:57:07;;;;;;;3.70;2.60;;;16.00;99.90;;;;;;4986012;28;20205;-71
2023/08/06 01:59:34;;;;;;;2.70;2.50;;;16.00;99.90;;;;;;4960900;28;20610;-72
2023/08/06 02:02:01;;;;;;;4.13;3.00;;;16.00;99.90;;;;;;4985995;28;20205;-71
2023/08/06 02:04:28;;;;;;;3.37;3.10;;;16.00;99.90;;;;;;4984654;28;20217;-74
2023/08/06 02:06:55;;;;;;;3.53;3.23;;;16.00;99.90;;;;;;4988829;28;20291;-72
2023/08/06 02:09:22;;;;;;;3.83;3.37;;;15.90;99.90;;;;;;5000896;28;20300;-73
2023/08/06 02:11:50;;;;;;;3.73;3.17;;;15.90;99.90;;;;;;4986693;28;20196;-71
2023/08/06 02:14:17;;;;;;;3.53;3.23;;;15.90;99.90;;;;;;4967227;28;20221;-74
2023/08/06 02:16:44;;;;;;;3.03;2.83;;;15.90;99.90;;;;;;4978158;28;20196;-71
2023/08/06 02:19:11;;;;;;;3.50;3.30;;;15.90;99.90;;;;;;4996120;28;20204;-72
2023/08/06 02:21:38;;;;;;;4.17;3.87;;;15.90;99.90;;;;;;4998404;28;20192;-71
2023/08/06 02:24:05;;;;;;;5.17;3.50;;;15.90;99.90;;;;;;4981486;28;20228;-71
2023/08/06 02:26:32;;;;;;;3.20;3.00;;;15.80;99.90;;;;;;4985862;28;20411;-71
2023/08/06 02:29:00;;;;;;;3.67;3.37;;;15.80;99.90;;;;;;4984415;28;20604;-72
2023/08/06 02:31:27;;;;;;;3.33;2.87;;;15.80;99.90;;;;;;5001242;28;20205;-73
2023/08/06 02:33:55;;;;;;;3.67;2.80;;;15.80;99.90;;;;;;5001825;28;20220;-73
2023/08/06 02:36:21;;;;;;;3.70;3.40;;;15.80;99.90;;;;;;4977632;28;20256;-73
2023/08/06 02:38:48;;;;;;;4.07;3.17;;;15.80;99.90;;;;;;4992240;28;20208;-71
2023/08/06 02:41:15;;;;;;;3.17;2.90;;;15.80;99.90;;;;;;5007695;28;20688;-73
2023/08/06 02:43:42;;;;;;;2.90;2.70;;;15.70;99.90;;;;;;4973289;28;21130;-71
2023/08/06 02:46:10;;;;;;;3.60;3.30;;;15.70;99.90;;;;;;4985617;28;20987;-73
2023/08/06 02:48:37;;;;;;;4.70;3.07;;;15.70;99.90;;;;;;4990049;28;20280;-71
2023/08/06 02:51:04;;;;;;;3.10;2.80;;;15.60;99.90;;;;;;4990121;28;20205;-71
2023/08/06 02:53:32;;;;;;;3.33;2.93;;;15.60;99.90;;;;;;4983199;28;20228;-71
2023/08/06 02:56:02;;;;;;;3.60;3.30;;;15.60;99.90;;;;;;4988659;28;20248;-71
2023/08/06 02:58:39;;;;;;;3.50;3.20;;;15.70;99.90;;;;;;4968921;28;20938;-72
2023/08/06 03:01:16;;;;;;;2.97;2.73;;;15.70;99.90;;;;;;4967045;28;20641;-73
2023/08/06 03:03:49;;;;;;;3.23;3.03;;;15.70;99.90;;;;;;4986736;28;20192;-71
2023/08/06 03:06:22;;;;;;;3.40;2.87;;;15.60;99.90;;;;;;4984777;28;20224;-73
2023/08/06 03:08:53;;;;;;;4.43;2.80;;;15.60;99.90;;;;;;5001834;28;20201;-70
2023/08/06 03:11:20;;;;;;;3.50;3.20;;;15.60;99.90;;;;;;4989316;28;20700;-74
2023/08/06 03:13:49;;;;;;;4.33;3.40;;;15.60;99.90;;;;;;4987062;28;20220;-70
2023/08/06 03:16:18;;;;;;;3.63;3.27;;;15.60;99.90;;;;;;4978862;28;20224;-72
2023/08/06 03:18:45;;;;;;;5.27;3.00;;;15.50;99.90;;;;;;4982545;28;20280;-70
2023/08/06 03:21:12;;;;;;;3.47;3.17;;;15.50;99.90;;;;;;4993784;28;20209;-71
2023/08/06 03:23:38;;;;;;;4.27;3.00;;;15.50;99.90;;;;;;4980999;28;20278;-71
2023/08/06 03:26:06;;;;;;;3.93;3.23;;;15.50;99.90;;;;;;4996467;28;20528;-71
2023/08/06 03:28:34;;;;;;;4.23;3.23;;;15.50;99.90;;;;;;4979881;28;20248;-71
2023/08/06 03:31:02;;;;;;;3.07;2.80;;;15.40;99.90;;;;;;4973327;28;20213;-70
2023/08/06 03:33:36;;;;;;;3.70;3.40;;;15.40;99.90;;;;;;4987431;28;20961;-72
2023/08/06 03:36:05;;;;;;;3.57;3.30;;;15.40;99.90;;;;;;4978354;28;20877;-70
2023/08/06 03:38:34;;;;;;;5.80;3.50;;;15.40;99.90;;;;;;5005329;28;20228;-70
2023/08/06 03:41:05;;;;;;;4.20;3.13;;;15.30;99.90;;;;;;5009901;28;20197;-71
2023/08/06 03:43:31;;;;;;;3.93;3.17;;;15.30;99.90;;;;;;4990402;28;20753;-70
2023/08/06 03:45:58;;;;;;;5.47;3.40;;;15.30;99.90;;;;;;4991084;28;20278;-70
2023/08/06 03:48:25;;;;;;;4.93;3.50;;;15.30;99.90;;;;;;4992055;28;20662;-72
2023/08/06 03:50:53;;;;;;;3.87;3.10;;;15.30;99.90;;;;;;4976719;28;20205;-70
2023/08/06 03:53:20;;;;;;;3.80;3.13;;;15.30;99.90;;;;;;4984158;28;20197;-73
2023/08/06 03:55:47;;;;;;;3.70;3.40;;;15.30;99.90;;;;;;4990775;28;20247;-70
2023/08/06 03:58:14;;;;;;;3.90;3.10;;;15.30;99.90;;;;;;4994436;28;20228;-72
2023/08/06 04:00:42;;;;;;;3.40;3.10;;;15.30;99.90;;;;;;4987238;28;20206;-70
2023/08/06 04:03:10;;;;;;;4.57;2.93;;;15.30;99.90;;;;;;4984142;28;20251;-72
2023/08/06 04:05:37;;;;;;;4.13;3.60;;;15.30;99.90;;;;;;4990432;28;20209;-70
2023/08/06 04:08:05;;;;;;;5.97;3.33;;;15.20;99.90;;;;;;4998910;28;20847;-71
2023/08/06 04:10:32;;;;;;;4.70;3.30;;;15.20;99.90;;;;;;4991330;28;20705;-71
2023/08/06 04:12:59;;;;;;;3.80;3.30;;;15.20;99.90;;;;;;5000809;28;20203;-70
2023/08/06 04:15:26;;;;;;;2.97;2.70;;;15.20;99.90;;;;;;4986146;28;20584;-72
2023/08/06 04:17:52;;;;;;;3.90;3.40;;;15.10;99.90;;;;;;4969291;28;20620;-70
2023/08/06 04:20:19;;;;;;;4.73;3.30;;;15.20;99.90;;;;;;4983789;28;20201;-72
2023/08/06 04:22:46;;;;;;;4.13;3.30;;;15.10;99.90;;;;;;4994693;28;20203;-71
2023/08/06 04:25:15;;;;;;;4.80;3.47;;;15.20;99.90;;;;;;4989623;28;20217;-72
2023/08/06 04:27:42;;;;;;;4.07;3.33;;;15.10;99.90;;;;;;4975715;28;20836;-70
2023/08/06 04:30:12;;;;;;;4.83;3.57;;;15.10;99.90;;;;;;4985976;28;20220;-72
2023/08/06 04:32:40;;;;;;;4.03;3.20;;;15.20;99.90;;;;;;4968583;28;20335;-71
2023/08/06 04:35:07;;;;;;;4.20;3.57;;;15.20;99.90;;;;;;4963180;28;20244;-71
2023/08/06 04:37:36;;;;;;;3.90;3.40;;;15.20;99.90;;;;;;4974647;28;20218;-71
2023/08/06 04:40:03;;;;;;;3.63;3.30;;;15.20;99.90;;;;;;4989010;28;20203;-71
2023/08/06 04:42:31;;;;;;;3.43;3.07;;;15.20;99.90;;;;;;4989172;28;20428;-71
2023/08/06 04:44:58;;;;;;;4.87;4.13;;;15.20;99.90;;;;;;4984120;28;20244;-70
2023/08/06 04:47:25;;;;;;;3.80;3.37;;;15.20;99.90;;;;;;4974560;28;20205;-71
2023/08/06 04:49:52;;;;;;;3.43;2.97;;;15.30;99.90;;;;;;4995698;28;20211;-70
2023/08/06 04:52:19;;;;;;;5.43;3.70;;;15.20;99.90;;;;;;4995437;28;20197;-71
2023/08/06 04:54:46;;;;;;;7.47;3.93;;;15.20;99.90;;;;;;4981963;28;20263;-71
2023/08/06 04:57:13;;;;;;;7.77;3.70;;;15.20;99.90;;;;;;4981997;28;20196;-71
2023/08/06 04:59:41;;;;;;;4.87;3.53;;;15.20;99.90;;;;;;4970488;28;20219;-70
2023/08/06 05:02:08;;;;;;;4.77;3.60;;;15.20;99.90;;;;;;4984037;28;20208;-70
2023/08/06 05:04:35;;;;;;;3.87;3.57;;;15.20;99.90;;;;;;4983874;28;20221;-71
2023/08/06 05:07:01;;;;;;;5.30;3.40;;;15.20;99.90;;;;;;4998718;28;20201;-71
2023/08/06 05:09:28;;;;;;;4.60;3.73;;;15.30;99.90;;;;;;5000413;28;20881;-71
2023/08/06 05:11:55;;;;;;;5.93;3.90;;;15.20;99.90;;;;;;4994313;28;20205;-71
2023/08/06 05:14:22;;;;;;;4.97;3.90;;;15.20;99.90;;;;;;4995049;28;20346;-70
2023/08/06 05:16:50;;;;;;;5.57;4.07;;;15.20;99.90;;;;;;4995985;28;20200;-71
2023/08/06 05:19:17;;;;;;;7.77;4.10;;;15.20;99.90;;;;;;4983441;28;22233;-70
2023/08/06 05:21:44;;;;;;;4.10;3.77;;;15.20;99.90;;;;;;4998208;28;20250;-71
2023/08/06 05:24:10;;;;;;;4.47;3.87;;;15.20;99.90;;;;;;4980009;28;20503;-70
2023/08/06 05:26:37;;;;;;;6.67;4.00;;;15.30;99.90;;;;;;4987077;28;20204;-70
2023/08/06 05:29:04;;;;;;;6.10;3.83;;;15.20;99.90;;;;;;5000790;28;20197;-73
2023/08/06 05:31:31;;;;;;;5.97;4.10;;;15.30;99.90;;;;;;5000648;28;20203;-72
2023/08/06 05:33:59;;;;;;;3.50;3.13;;;15.30;99.90;;;;;;4987915;28;20826;-72
2023/08/06 05:36:26;;;;;;;4.60;4.20;;;15.30;99.90;;;;;;4983819;28;20975;-71
2023/08/06 05:38:53;;;;;;;5.27;4.07;;;15.40;99.90;;;;;;5005143;28;20204;-72
2023/08/06 05:41:19;;;;;;;7.73;3.93;;;15.40;99.90;;;;;;5003827;28;20869;-71
2023/08/06 05:43:46;;;;;;;4.53;4.13;;;15.40;99.90;;;;;;4989137;28;20660;-71
2023/08/06 05:46:14;;;;;;;5.13;4.20;;;15.40;99.90;;;;;;4990313;28;20259;-72
2023/08/06 05:48:40;;;;;;;4.90;4.30;;;15.40;99.90;;;;;;5005068;28;20572;-71
2023/08/06 05:51:09;;;;;;;4.33;3.93;;;15.50;99.90;;;;;;4984373;28;20204;-71
2023/08/06 05:53:35;;;;;;;5.30;4.00;;;15.50;99.90;;;;;;5003354;28;20196;-71
2023/08/06 05:56:02;;;;;;;5.87;3.97;;;15.50;99.90;;;;;;5002624;28;20224;-72
2023/08/06 05:58:30;;;;;;;4.20;3.80;;;15.60;99.90;;;;;;4983535;28;20573;-72
2023/08/06 06:00:57;;;;;;;6.03;4.13;;;15.60;99.90;;;;;;4988869;28;20217;-72
2023/08/06 06:03:24;;;;;;;7.70;4.20;;;15.60;99.90;;;;;;4989817;28;20193;-72
2023/08/06 06:05:50;;;;;;;7.73;4.67;;;15.60;99.90;;;;;;4998938;28;20216;-73
2023/08/06 06:08:19;;;;;;;4.60;4.20;;;15.60;99.90;;;;;;4990935;28;20209;-71
2023/08/06 06:10:45;;;;;;;7.47;4.23;;;15.60;99.90;;;;;;4999416;28;20271;-72
2023/08/06 06:13:12;;;;;;;4.73;4.20;;;15.70;99.90;;;;;;5001938;28;20193;-72
2023/08/06 06:15:42;;;;;;;7.63;4.30;;;15.70;99.90;;;;;;5005034;28;20216;-71
2023/08/06 06:18:09;;;;;;;6.43;5.07;;;15.70;99.90;;;;;;4981553;28;20324;-72
2023/08/06 06:20:35;;;;;;;5.53;4.60;;;15.70;99.90;;;;;;5000342;28;20205;-72
2023/08/06 06:23:02;;;;;;;6.57;4.30;;;15.70;99.90;;;;;;4997225;28;20208;-72
2023/08/06 06:25:30;;;;;;;5.90;4.93;;;15.70;99.90;;;;;;5000298;28;20220;-72
2023/08/06 06:27:58;;;;;;;6.33;4.47;;;15.80;99.90;;;;;;5003123;28;20196;-71
2023/08/06 06:30:25;;;;;;;5.63;5.10;;;15.70;99.90;;;;;;5001497;28;20237;-72
2023/08/06 06:32:52;;;;;;;5.03;4.40;;;15.80;99.90;;;;;;4992401;28;20235;-73
2023/08/06 06:35:19;;;;;;;6.03;4.67;;;15.80;99.90;;;;;;4995681;28;20931;-72
2023/08/06 06:37:46;;;;;;;6.23;3.97;;;15.80;99.90;;;;;;4982234;28;20223;-72
2023/08/06 06:40:13;;;;;;;4.40;4.00;;;15.90;99.90;;;;;;4995154;28;20185;-71
2023/08/06 06:42:41;;;;;;;4.70;4.40;;;15.90;99.90;;;;;;5001122;28;20209;-71
2023/08/06 06:45:10;;;;;;;5.63;4.27;;;16.00;99.90;;;;;;4997793;28;20208;-72
2023/08/06 06:47:37;;;;;;;6.97;4.60;;;16.00;99.90;;;;;;5001699;28;20570;-72
2023/08/06 06:50:04;;;;;;;6.50;4.20;;;16.00;99.90;;;;;;4988704;28;20205;-72
2023/08/06 06:52:31;;;;;;;6.60;4.67;;;16.10;99.90;;;;;;4983827;28;20216;-72
2023/08/06 06:54:58;;;;;;;6.30;4.53;;;15.80;99.90;;;;;;4998243;28;20562;-73
2023/08/06 06:57:25;;;;;;;8.03;4.57;;;15.90;99.90;;;;;;4998958;28;20270;-72
2023/08/06 06:59:53;;;;;;;5.40;4.80;;;15.90;99.90;;;;;;4973304;28;20213;-72
2023/08/06 07:02:20;;;;;;;7.17;4.77;;;16.00;99.90;;;;;;5003928;28;20661;-71
2023/08/06 07:04:47;;;;;;;7.27;4.67;;;15.90;99.90;;;;;;4993984;28;20311;-72
2023/08/06 07:07:14;;;;;;;5.57;4.57;;;15.90;99.90;;;;;;5002861;28;20193;-71
2023/08/06 07:09:41;;;;;;;6.77;4.80;;;16.00;99.90;;;;;;4979524;28;20212;-72
2023/08/06 07:12:08;;;;;;;6.70;5.00;;;16.10;99.90;;;;;;4997394;28;20197;-71
2023/08/06 07:14:35;;;;;;;4.70;4.20;;;16.00;99.90;;;;;;4982718;28;20399;-72
2023/08/06 07:17:04;;;;;;;4.67;4.03;;;16.10;99.90;;;;;;4982031;28;20623;-71
2023/08/06 07:19:31;;;;;;;5.00;4.30;;;16.10;99.90;;;;;;4993944;28;20197;-71
2023/08/06 07:21:58;;;;;;;5.03;4.20;;;16.00;99.90;;;;;;4984590;28;20206;-72
2023/08/06 07:24:25;;;;;;;9.00;4.57;;;;;;;;;;4980091;28;20209;-72
2023/08/06 07:26:53;;;;;;;7.43;5.07;;;;;;;;;;4980722;28;20205;-72
2023/08/06 07:29:21;;;;;;;4.67;4.13;;;16.30;99.90;;;;;;4995563;28;20240;-71
2023/08/06 07:31:49;;;;;;;7.33;4.67;;;16.30;99.90;;;;;;4998483;28;20227;-72
2023/08/06 07:34:17;;;;;;;5.57;4.87;;;16.30;99.90;;;;;;4997554;28;20204;-70
2023/08/06 07:36:45;;;;;;;7.30;4.13;;;16.30;99.90;;;;;;4995549;28;20759;-72
2023/08/06 07:39:12;;;;;;;6.40;4.80;;;16.30;99.90;;;;;;4983280;28;20239;-70
2023/08/06 07:41:38;;;;;;;6.63;4.60;;;16.40;99.90;;;;;;4973827;28;20209;-72
2023/08/06 07:44:05;;;;;;;5.60;5.10;;;16.40;99.90;;;;;;5000473;28;20196;-72
2023/08/06 07:46:32;;;;;;;4.87;4.47;;;16.40;99.90;;;;;;4998563;28;20197;-71
2023/08/06 07:48:59;;;;;;;6.37;4.70;;;16.50;99.90;;;;;;4989185;28;20279;-70
2023/08/06 07:51:28;;;;;;;5.17;4.67;;;16.50;99.90;;;;;;4998289;28;20278;-70
2023/08/06 07:53:55;;;;;;;6.70;5.50;;;16.60;99.90;;;;;;4992781;28;20468;-70
2023/08/06 07:56:22;;;;;;;6.07;4.37;;;16.50;99.90;;;;;;4999252;28;20216;-70
2023/08/06 07:58:49;;;;;;;5.63;4.63;;;16.60;99.90;;;;;;4991554;28;20279;-70
2023/08/06 08:01:16;;;;;;;4.80;4.40;;;16.60;99.90;;;;;;4995852;28;20661;-72
2023/08/06 08:03:43;;;;;;;6.83;4.77;;;16.60;99.90;;;;;;4984540;28;20189;-70
2023/08/06 08:06:10;;;;;;;5.07;4.53;;;16.50;99.90;;;;;;5001081;28;20228;-69
2023/08/06 08:08:38;;;;;;;8.00;4.90;;;16.60;99.90;;;;;;4994786;28;20200;-68
2023/08/06 08:11:06;;;;;;;7.73;4.60;;;16.60;99.90;;;;;;4989622;28;20549;-68
2023/08/06 08:13:32;;;;;;;5.90;4.87;;;16.60;99.90;;;;;;4985923;28;20200;-69
2023/08/06 08:16:00;;;;;;;6.70;5.03;;;16.60;99.90;;;;;;5001921;28;20220;-69
2023/08/06 08:18:27;;;;;;;5.83;4.77;;;16.60;99.90;;;;;;4982756;28;20397;-68
2023/08/06 08:20:54;;;;;;;5.50;4.97;;;16.70;99.90;;;;;;4990746;28;20252;-69
2023/08/06 08:23:21;;;;;;;4.63;4.23;;;16.60;99.90;;;;;;4983270;28;20332;-68
2023/08/06 08:25:49;;;;;;;7.13;4.70;;;16.70;99.90;;;;;;4977860;28;20729;-68
2023/08/06 08:28:16;;;;;;;5.03;4.53;;;16.70;99.90;;;;;;4979435;28;20744;-68
2023/08/06 08:30:43;;;;;;;5.33;4.60;;;16.80;99.90;;;;;;4984687;28;20205;-68
2023/08/06 08:33:10;;;;;;;6.73;4.60;;;16.80;99.90;;;;;;4995770;28;20193;-68
2023/08/06 08:35:37;;;;;;;8.27;5.17;;;16.80;99.90;;;;;;4992516;28;20593;-68
2023/08/06 08:38:05;;;;;;;5.67;5.17;;;16.90;99.90;;;;;;5016000;28;20254;-68
2023/08/06 08:40:33;;;;;;;5.40;4.90;;;16.90;99.90;;;;;;5007224;28;20815;-68
2023/08/06 08:43:03;;;;;;;5.50;4.87;;;17.00;99.90;;;;;;4976475;28;20700;-68
2023/08/06 08:45:30;;;;;;;6.53;5.27;;;17.00;99.90;;;;;;4988626;28;20208;-68
2023/08/06 08:47:57;;;;;;;6.47;5.17;;;17.10;99.90;;;;;;5002649;28;20204;-68
2023/08/06 08:50:24;;;;;;;7.10;5.17;;;17.00;99.90;;;;;;4992890;28;20205;-68
2023/08/06 08:52:52;;;;;;;6.73;5.77;;;17.00;99.90;;;;;;5003318;28;20253;-68
2023/08/06 08:55:21;;;;;;;7.83;5.17;;;17.10;99.90;;;;;;4992456;28;20208;-70
2023/08/06 08:57:48;;;;;;;7.00;4.80;;;17.00;99.90;;;;;;4975226;28;20223;-69
2023/08/06 09:00:17;;;;;;;6.00;5.50;;;17.10;99.90;;;;;;4997435;28;20201;-70
2023/08/06 09:02:46;;;;;;;8.63;5.37;;;17.10;99.90;;;;;;4993554;28;20200;-70
2023/08/06 09:05:14;;;;;;;5.83;5.40;;;17.10;99.90;;;;;;5003122;28;20220;-67
2023/08/06 09:07:44;;;;;;;7.00;5.57;;;17.10;99.90;;;;;;5000541;28;20216;-69
2023/08/06 09:10:13;;;;;;;5.70;5.10;;;17.10;99.90;;;;;;4992212;28;20283;-70
2023/08/06 09:12:40;;;;;;;6.47;5.53;;;17.10;99.90;;;;;;4984048;28;20209;-70
2023/08/06 09:15:08;;;;;;;5.60;4.70;;;17.10;99.90;;;;;;4994994;28;20214;-70
2023/08/06 09:17:37;;;;;;;6.83;5.73;;;17.10;99.90;;;;;;4987270;28;20804;-69
2023/08/06 09:20:12;;;;;;;7.20;5.60;;;17.20;99.90;;;;;;4994355;28;20209;-69
2023/08/06 09:22:39;;;;;;;7.57;5.67;;;17.20;99.90;;;;;;4973210;28;20263;-69
2023/08/06 09:25:09;;;;;;;6.67;5.47;;;17.20;99.90;;;;;;4997305;28;20327;-69
2023/08/06 09:27:37;;;;;;;7.03;5.87;;;17.20;99.90;;;;;;4983678;28;20331;-70
2023/08/06 09:30:05;;;;;;;7.23;5.10;;;17.20;99.90;;;;;;5002280;28;20201;-69
2023/08/06 09:32:48;;;;;;;6.73;5.50;;;17.20;99.90;;;;;;4981405;28;20190;-70
2023/08/06 09:35:19;;;;;;;6.10;5.53;;;17.20;99.90;;;;;;4999187;28;20232;-69
2023/08/06 09:37:46;;;;;;;6.50;5.90;;;17.20;99.90;;;;;;5000726;28;20760;-70
2023/08/06 09:40:27;;;;;;;7.67;6.97;;;17.20;99.90;;;;;;5000119;28;20207;-69
2023/08/06 09:42:54;;;;;;;8.23;5.70;;;17.10;99.90;;;;;;5000508;28;20196;-68
2023/08/06 09:45:21;;;;;;;7.23;6.40;;;17.10;99.90;;;;;;4975522;28;20231;-68
2023/08/06 09:47:50;;;;;;;7.00;5.97;;;17.10;99.90;;;;;;5002517;28;20208;-70
2023/08/06 09:50:19;;;;;;;6.53;5.90;;;17.10;99.90;;;;;;5003655;28;20223;-67
2023/08/06 09:52:46;;;;;;;8.13;5.60;;;17.10;99.90;;;;;;5000331;28;20661;-70
2023/08/06 09:55:13;;;;;;;6.73;6.07;;;17.10;99.90;;;;;;4998310;28;20231;-69
2023/08/06 09:57:41;;;;;;;7.10;6.40;;;17.10;99.90;;;;;;4994000;28;20923;-70
2023/08/06 10:00:09;;;;;;;7.27;6.43;;;17.10;99.90;;;;;;4985224;28;20694;-69
2023/08/06 10:02:40;;;;;;;6.90;6.27;;;17.10;99.90;;;;;;5000045;28;20201;-69
2023/08/06 10:05:09;;;;;;;11.20;6.07;;;17.10;99.90;;;;;;5002893;28;20696;-70
2023/08/06 10:07:38;;;;;;;6.77;6.20;;;17.10;99.90;;;;;;4997829;28;21196;-69
2023/08/06 10:10:06;;;;;;;7.47;6.77;;;17.10;99.90;;;;;;4997234;28;20193;-69
2023/08/06 10:12:36;;;;;;;9.53;6.93;;;17.10;99.90;;;;;;4991785;28;20209;-70
2023/08/06 10:15:07;;;;;;;8.03;7.23;;;17.10;99.90;;;;;;5002455;28;20221;-70
2023/08/06 10:17:36;;;;;;;8.23;7.43;;;17.10;99.90;;;;;;4987405;28;20311;-69
2023/08/06 10:20:06;;;;;;;9.67;7.10;;;17.10;99.90;;;;;;4994537;28;20201;-69
2023/08/06 10:22:35;;;;;;;7.63;6.83;;;17.10;99.90;;;;;;4993913;28;20220;-70
2023/08/06 10:25:04;;;;;;;8.43;7.30;;;17.00;99.90;;;;;;4997788;28;20224;-70
2023/08/06 10:27:34;;;;;;;10.57;7.53;;;17.00;99.90;;;;;;4971913;28;20192;-71
2023/08/06 10:30:22;;;;;;;8.80;8.03;;;17.00;99.90;;;;;;4992422;28;20209;-70
2023/08/06 10:32:49;;;;;;;8.83;7.63;;;16.90;99.90;;;;;;4968962;28;20803;-71
2023/08/06 10:35:30;;;;;;;8.43;7.53;;;16.90;99.90;;;;;;4993855;28;20242;-71
2023/08/06 10:38:03;;;;;;;9.23;7.20;;;16.90;99.90;;;;;;4997460;28;20185;-71
2023/08/06 10:40:30;;;;;;;8.30;7.50;;;16.90;99.90;;;;;;5005119;28;20730;-71
2023/08/06 10:43:00;;;;;;;8.17;7.27;;;16.90;99.90;;;;;;4980112;28;20253;-70
2023/08/06 10:45:28;;;;;;;8.13;6.93;;;16.90;99.90;;;;;;4996469;28;20223;-70
2023/08/06 10:47:57;;;;;;;7.50;6.83;;;16.90;99.90;;;;;;4988028;28;20208;-71
2023/08/06 10:50:24;;;;;;;10.73;7.10;;;16.90;99.90;;;;;;5004019;28;20264;-70
2023/08/06 10:52:51;;;;;;;8.73;7.93;;;17.00;99.90;;;;;;5002538;28;20196;-70
2023/08/06 10:55:27;;;;;;;11.97;7.47;;;17.00;99.90;;;;;;4996411;28;20670;-70
2023/08/06 10:57:54;;;;;;;7.90;7.13;;;17.00;99.90;;;;;;4980838;28;20632;-70
2023/08/06 11:00:22;;;;;;;7.57;6.80;;;17.00;99.90;;;;;;4997040;28;20213;-70
2023/08/06 11:02:50;;;;;;;8.27;6.97;;;17.00;99.90;;;;;;4975533;28;20212;-71
2023/08/06 11:05:17;;;;;;;7.20;6.60;;;17.10;99.90;;;;;;4992587;28;20212;-71
2023/08/06 11:07:44;;;;;;;8.10;7.30;;;17.10;99.90;;;;;;4996345;28;20196;-71
2023/08/06 11:10:12;;;;;;;9.17;6.90;;;17.20;99.90;;;;;;4990971;28;20273;-70
2023/08/06 11:12:41;;;;;;;7.40;6.70;;;17.10;99.90;;;;;;5002123;28;20615;-70
2023/08/06 11:15:08;;;;;;;11.37;7.13;;;17.10;99.90;;;;;;4984815;28;20281;-71
2023/08/06 11:17:36;;;;;;;7.20;6.20;;;17.10;99.90;;;;;;5000251;28;20213;-70
2023/08/06 11:20:04;;;;;;;7.63;6.87;;;17.10;99.90;;;;;;4978404;28;20481;-71
2023/08/06 11:22:31;;;;;;;10.00;6.90;;;17.10;99.90;;;;;;4998503;28;20196;-71
2023/08/06 11:25:00;;;;;;;7.07;6.33;;;17.10;99.90;;;;;;4996129;28;20708;-71
2023/08/06 11:27:29;;;;;;;7.90;7.20;;;17.00;99.90;;;;;;5000308;28;20298;-70
2023/08/06 11:29:57;;;;;;;7.13;6.40;;;17.10;99.90;;;;;;4993208;28;20212;-71
2023/08/06 11:32:24;;;;;;;8.97;6.70;;;17.10;99.90;;;;;;4970344;28;20299;-71
2023/08/06 11:34:51;;;;;;;9.73;6.67;;;17.10;99.90;;;;;;4965112;28;20235;-71
2023/08/06 11:37:22;;;;;;;9.67;6.80;;;17.10;99.90;;;;;;4994652;28;20212;-70
2023/08/06 11:39:49;;;;;;;9.90;6.83;;;17.20;99.90;;;;;;4995140;28;20260;-71
2023/08/06 11:42:16;;;;;;;10.13;6.70;;;17.20;99.90;;;;;;4997066;28;20192;-71
2023/08/06 11:44:45;;;;;;;8.53;7.30;;;17.20;99.90;;;;;;4997142;28;20658;-71
2023/08/06 11:47:15;;;;;;;9.13;6.47;;;17.20;99.90;;;;;;4999701;28;20259;-70
2023/08/06 11:49:45;;;;;;;7.17;6.50;;;17.30;99.90;;;;;;4977220;28;20205;-71
2023/08/06 11:52:15;;;;;;;7.77;6.17;;;17.40;99.90;;;;;;4986630;28;20196;-71
2023/08/06 11:54:42;;;;;;;6.57;5.83;;;17.30;99.90;;;;;;4980879;28;20228;-71
2023/08/06 11:57:08;;;;;;;9.37;6.53;;;17.40;99.90;;;;;;4982941;28;20968;-70
2023/08/06 11:59:35;;;;;;;7.87;6.27;;;17.40;99.90;;;;;;4988654;28;20251;-70
2023/08/06 12:02:05;;;;;;;7.80;6.50;;;17.40;99.90;;;;;;4989321;28;20882;-70
2023/08/06 12:04:48;;;;;;;6.90;6.20;;;17.50;99.90;;;;;;5002676;28;20273;-70
2023/08/06 12:07:17;;;;;;;6.37;5.83;;;17.50;99.90;;;;;;4979757;28;20922;-70
2023/08/06 12:09:43;;;;;;;8.57;6.30;;;17.60;99.90;;;;;;4998596;28;20208;-70
2023/08/06 12:12:10;;;;;;;7.73;6.07;;;17.70;99.90;;;;;;4999667;28;20773;-70
2023/08/06 12:14:37;;;;;;;6.43;5.63;;;17.70;99.90;;;;;;5003151;28;20220;-70
2023/08/06 12:17:04;;;;;;;8.03;5.83;;;17.80;99.90;;;;;;4992926;28;20224;-70
2023/08/06 12:19:32;;;;;;;8.90;6.03;;;17.70;99.90;;;;;;4997309;28;20200;-70
2023/08/06 12:21:59;;;;;;;6.00;5.50;;;17.70;99.90;;;;;;4972793;28;20216;-70
2023/08/06 12:24:26;;;;;;;6.53;5.97;;;17.70;99.90;;;;;;4998960;28;20212;-71
2023/08/06 12:26:53;;;;;;;7.77;5.53;;;17.80;99.90;;;;;;4994178;28;20200;-70
2023/08/06 12:29:20;;;;;;;9.10;6.17;;;17.80;99.90;;;;;;4999569;28;20205;-70
2023/08/06 12:31:47;;;;;;;6.27;5.77;;;17.80;99.90;;;;;;4994946;28;20197;-70
2023/08/06 12:34:13;;;;;;;7.00;5.87;;;17.90;99.90;;;;;;4990866;28;20906;-70
2023/08/06 12:36:42;;;;;;;6.90;6.30;;;17.90;99.90;;;;;;4998324;28;20227;-70
2023/08/06 12:39:08;;;;;;;7.33;5.90;;;17.80;99.90;;;;;;4977354;28;20204;-70
2023/08/06 12:41:35;;;;;;;6.90;6.30;;;17.90;99.90;;;;;;4995486;28;20201;-71
2023/08/06 12:44:02;;;;;;;7.10;6.00;;;17.90;99.90;;;;;;4978032;28;20701;-70
2023/08/06 12:46:29;;;;;;;7.37;5.27;;;17.90;99.90;;;;;;4994598;28;20615;-70
2023/08/06 12:48:57;;;;;;;8.20;5.87;;;18.00;99.90;;;;;;4990429;28;20208;-71
2023/08/06 12:51:24;;;;;;;6.63;5.93;;;18.10;99.90;;;;;;4997783;28;20193;-70